Time,TemperatureF,DewpointF,PressureIn,WindDirection,WindDirectionDegrees,WindSpeedMPH,WindSpeedGustMPH,Humidity,HourlyPrecipIn,Conditions,Clouds,dailyrainin,SolarRadiationWatts/m^2,SoftwareType,DateUTC
2013-01-18 00:00:00,34.4,31.8,30.30,NE,50,0.0,5.0,90,0.00,,---,0.00,0.00,VWS V14.01,2013-01-18 08:00:00,
2013-01-18 00:03:00,34.4,31.8,30.30,NE,50,0.0,2.0,90,0.00,,---,0.00,0.00,VWS V14.01,2013-01-18 08:03:00,
2013-01-18 00:07:00,34.4,31.8,30.30,NE,50,0.0,2.0,90,0.00,,---,0.00,0.00,VWS V14.01,2013-01-18 08:07:00,
2013-01-18 00:12:00,34.6,32.0,30.30,NE,50,1.0,3.0,90,0.00,,---,0.00,0.00,VWS V14.01,2013-01-18 08:12:00,
2013-01-18 00:17:00,34.7,32.1,30.30,NE,50,0.0,5.0,90,0.00,,---,0.00,0.00,VWS V14.01,2013-01-18 08:17:00,
2013-01-18 00:22:00,34.8,32.2,30.30,NE,50,0.0,5.0,90,0.00,,---,0.00,0.00,VWS V14.01,2013-01-18 08:22:00,
2013-01-18 00:27:00,34.9,32.3,30.30,NE,50,0.0,0.0,90,0.00,,---,0.00,0.00,VWS V14.01,2013-01-18 08:27:00,
2013-01-18 00:30:00,34.9,32.3,30.30,NE,50,0.0,5.0,90,0.00,,---,0.00,0.00,VWS V14.01,2013-01-18 08:30:00,
2013-01-18 00:32:00,35.0,32.4,30.29,NE,50,0.0,4.0,90,0.00,,---,0.00,0.00,VWS V14.01,2013-01-18 08:32:00,
2013-01-18 00:37:00,35.0,32.4,30.29,NE,50,0.0,4.0,90,0.00,,---,0.00,0.00,VWS V14.01,2013-01-18 08:37:00,
2013-01-18 00:42:00,35.1,32.5,30.29,NE,50,0.0,4.0,90,0.00,,---,0.00,0.00,VWS V14.01,2013-01-18 08:42:00,
2013-01-18 00:47:00,35.1,32.5,30.29,NE,50,0.0,4.0,90,0.00,,---,0.00,0.00,VWS V14.01,2013-01-18 08:47:00,
2013-01-18 00:52:00,35.1,32.5,30.29,NE,50,0.0,4.0,90,0.00,,---,0.00,0.00,VWS V14.01,2013-01-18 08:52:00,
2013-01-18 00:57:00,35.1,32.5,30.30,NE,50,0.0,0.0,90,0.00,,---,0.00,0.00,VWS V14.01,2013-01-18 08:57:00,
2013-01-18 01:00:00,35.1,32.5,30.30,NE,50,1.0,4.0,90,0.00,,---,0.00,0.00,VWS V14.01,2013-01-18 09:00:00,
2013-01-18 01:02:00,35.1,32.5,30.30,NE,50,1.0,1.0,90,0.00,,---,0.00,0.00,VWS V14.01,2013-01-18 09:02:00,
2013-01-18 01:07:00,34.9,32.3,30.29,NE,50,0.0,2.0,90,0.00,,---,0.00,0.00,VWS V14.01,2013-01-18 09:07:00,
2013-01-18 01:12:00,34.8,32.2,30.30,NE,50,2.0,4.0,90,0.00,,---,0.00,0.00,VWS V14.01,2013-01-18 09:12:00,
2013-01-18 01:17:00,34.7,32.1,30.30,NE,50,0.0,4.0,90,0.00,,---,0.00,0.00,VWS V14.01,2013-01-18 09:17:00,
2013-01-18 01:22:00,34.8,32.2,30.29,NE,50,0.0,5.0,90,0.00,,---,0.00,0.00,VWS V14.01,2013-01-18 09:22:00,
2013-01-18 01:27:00,34.9,32.3,30.29,NE,50,0.0,0.0,90,0.00,,---,0.00,0.00,VWS V14.01,2013-01-18 09:27:00,
2013-01-18 01:30:00,34.9,32.3,30.29,NE,50,0.0,5.0,90,0.00,,---,0.00,0.00,VWS V14.01,2013-01-18 09:30:00,
2013-01-18 01:32:00,35.1,32.5,30.30,NE,50,2.0,2.0,90,0.00,,---,0.00,0.00,VWS V14.01,2013-01-18 09:32:00,
2013-01-18 01:37:00,35.1,32.5,30.29,NE,50,0.0,2.0,90,0.00,,---,0.00,0.00,VWS V14.01,2013-01-18 09:37:00,
2013-01-18 01:42:00,35.2,32.6,30.29,NE,50,0.0,2.0,90,0.00,,---,0.00,0.00,VWS V14.01,2013-01-18 09:42:00,
2013-01-18 01:47:00,35.2,32.6,30.29,NE,50,0.0,2.0,90,0.00,,---,0.00,0.00,VWS V14.01,2013-01-18 09:47:00,
2013-01-18 01:52:00,35.2,32.6,30.29,NE,50,1.0,5.0,90,0.00,,---,0.00,0.00,VWS V14.01,2013-01-18 09:52:00,
2013-01-18 01:57:00,35.2,32.6,30.29,NE,50,1.0,5.0,90,0.00,,---,0.00,0.00,VWS V14.01,2013-01-18 09:57:00,
2013-01-18 02:00:00,35.2,32.6,30.29,NE,50,5.0,6.0,90,0.00,,---,0.00,0.00,VWS V14.01,2013-01-18 10:00:00,
2013-01-18 02:02:00,35.3,32.7,30.29,NE,50,1.0,6.0,90,0.00,,---,0.00,0.00,VWS V14.01,2013-01-18 10:02:00,
2013-01-18 02:07:00,35.2,32.6,30.29,NE,50,0.0,6.0,90,0.00,,---,0.00,0.00,VWS V14.01,2013-01-18 10:07:00,
2013-01-18 02:12:00,35.2,32.6,30.29,NE,50,4.0,6.0,90,0.00,,---,0.00,0.00,VWS V14.01,2013-01-18 10:12:00,
2013-01-18 02:17:00,35.2,32.6,30.29,NE,50,2.0,6.0,90,0.00,,---,0.00,0.00,VWS V14.01,2013-01-18 10:17:00,
2013-01-18 02:22:00,35.2,32.6,30.29,NE,50,4.0,6.0,90,0.00,,---,0.00,0.00,VWS V14.01,2013-01-18 10:22:00,
2013-01-18 02:27:00,35.2,32.6,30.29,NE,50,0.0,3.0,90,0.00,,---,0.00,0.00,VWS V14.01,2013-01-18 10:27:00,
2013-01-18 02:30:00,35.2,32.6,30.29,NE,50,3.0,6.0,90,0.00,,---,0.00,0.00,VWS V14.01,2013-01-18 10:30:00,
2013-01-18 02:32:00,35.2,32.6,30.29,NE,50,2.0,5.0,90,0.00,,---,0.00,0.00,VWS V14.01,2013-01-18 10:32:00,
2013-01-18 02:37:00,35.2,32.6,30.29,NE,50,1.0,5.0,90,0.00,,---,0.00,0.00,VWS V14.01,2013-01-18 10:37:00,
2013-01-18 02:42:00,35.2,32.6,30.29,NE,50,2.0,5.0,90,0.00,,---,0.00,0.00,VWS V14.01,2013-01-18 10:42:00,
2013-01-18 02:47:00,34.9,32.3,30.29,NE,50,1.0,5.0,90,0.00,,---,0.00,0.00,VWS V14.01,2013-01-18 10:47:00,
2013-01-18 02:52:00,34.6,32.0,30.29,NE,50,2.0,5.0,90,0.00,,---,0.00,0.00,VWS V14.01,2013-01-18 10:52:00,
2013-01-18 02:57:00,34.4,31.8,30.29,NE,50,0.0,2.0,90,0.00,,---,0.00,0.00,VWS V14.01,2013-01-18 10:57:00,
2013-01-18 03:00:00,34.4,31.8,30.29,NE,50,0.0,5.0,90,0.00,,---,0.00,0.00,VWS V14.01,2013-01-18 11:00:00,
2013-01-18 03:02:00,34.4,31.8,30.29,NE,50,0.0,2.0,90,0.00,,---,0.00,0.00,VWS V14.01,2013-01-18 11:02:00,
2013-01-18 03:07:00,34.4,31.8,30.29,NE,50,0.0,2.0,90,0.00,,---,0.00,0.00,VWS V14.01,2013-01-18 11:07:00,
2013-01-18 03:12:00,34.4,31.8,30.29,NE,50,0.0,2.0,90,0.00,,---,0.00,0.00,VWS V14.01,2013-01-18 11:12:00,
2013-01-18 03:17:00,34.4,31.8,30.29,NE,50,0.0,2.0,90,0.00,,---,0.00,0.00,VWS V14.01,2013-01-18 11:17:00,
2013-01-18 03:22:00,34.4,31.8,30.29,NE,50,0.0,2.0,90,0.00,,---,0.00,0.00,VWS V14.01,2013-01-18 11:22:00,
2013-01-18 03:27:00,34.4,31.8,30.29,NE,50,0.0,0.0,90,0.00,,---,0.00,0.00,VWS V14.01,2013-01-18 11:27:00,
2013-01-18 03:30:00,34.4,31.8,30.29,NE,50,0.0,2.0,90,0.00,,---,0.00,0.00,VWS V14.01,2013-01-18 11:30:00,
2013-01-18 03:32:00,34.4,31.8,30.29,NE,50,1.0,2.0,90,0.00,,---,0.00,0.00,VWS V14.01,2013-01-18 11:32:00,
2013-01-18 03:37:00,34.3,31.7,30.29,NE,50,2.0,3.0,90,0.00,,---,0.00,0.00,VWS V14.01,2013-01-18 11:37:00,
2013-01-18 03:42:00,34.1,31.5,30.28,NE,50,0.0,3.0,90,0.00,,---,0.00,0.00,VWS V14.01,2013-01-18 11:42:00,
2013-01-18 03:47:00,33.9,31.3,30.28,NE,50,0.0,3.0,90,0.00,,---,0.00,0.00,VWS V14.01,2013-01-18 11:47:00,
2013-01-18 03:52:00,33.9,31.3,30.28,NE,50,0.0,3.0,90,0.00,,---,0.00,0.00,VWS V14.01,2013-01-18 11:52:00,
2013-01-18 03:57:00,33.9,31.3,30.28,NE,50,0.0,2.0,90,0.00,,---,0.00,0.00,VWS V14.01,2013-01-18 11:57:00,
2013-01-18 04:00:00,33.9,31.3,30.28,NE,50,1.0,3.0,90,0.00,,---,0.00,0.00,VWS V14.01,2013-01-18 12:00:00,
2013-01-18 04:02:00,33.9,31.3,30.27,NE,50,0.0,2.0,90,0.00,,---,0.00,0.00,VWS V14.01,2013-01-18 12:02:00,
2013-01-18 04:07:00,33.8,31.2,30.27,NE,50,0.0,2.0,90,0.00,,---,0.00,0.00,VWS V14.01,2013-01-18 12:07:00,
2013-01-18 04:12:00,33.9,31.3,30.27,NE,50,0.0,2.0,90,0.00,,---,0.00,0.00,VWS V14.01,2013-01-18 12:12:00,
2013-01-18 04:17:00,33.9,31.3,30.27,NE,50,0.0,2.0,90,0.00,,---,0.00,0.00,VWS V14.01,2013-01-18 12:17:00,
2013-01-18 04:22:00,33.9,31.3,30.27,NE,50,0.0,2.0,90,0.00,,---,0.00,0.00,VWS V14.01,2013-01-18 12:22:00,
2013-01-18 04:27:00,33.9,31.3,30.27,NE,50,0.0,0.0,90,0.00,,---,0.00,0.00,VWS V14.01,2013-01-18 12:27:00,
2013-01-18 04:30:00,34.0,31.4,30.27,NE,50,0.0,2.0,90,0.00,,---,0.00,0.00,VWS V14.01,2013-01-18 12:30:00,
2013-01-18 04:32:00,33.9,31.3,30.27,NE,50,0.0,1.0,90,0.00,,---,0.00,0.00,VWS V14.01,2013-01-18 12:32:00,
2013-01-18 04:37:00,33.9,31.3,30.27,NE,50,1.0,2.0,90,0.00,,---,0.00,0.00,VWS V14.01,2013-01-18 12:37:00,
2013-01-18 04:42:00,33.9,31.3,30.27,NE,50,0.0,2.0,90,0.00,,---,0.00,0.00,VWS V14.01,2013-01-18 12:42:00,
2013-01-18 04:47:00,33.9,31.3,30.27,NE,50,0.0,3.0,90,0.00,,---,0.00,0.00,VWS V14.01,2013-01-18 12:47:00,
2013-01-18 04:52:00,33.9,31.3,30.27,NE,50,0.0,3.0,90,0.00,,---,0.00,0.00,VWS V14.01,2013-01-18 12:52:00,
2013-01-18 04:57:00,33.8,31.2,30.26,NE,50,0.0,0.0,90,0.00,,---,0.00,0.00,VWS V14.01,2013-01-18 12:57:00,
2013-01-18 05:00:00,33.8,31.2,30.26,NE,50,0.0,3.0,90,0.00,,---,0.00,0.00,VWS V14.01,2013-01-18 13:00:00,
2013-01-18 05:02:00,33.8,31.2,30.27,NE,50,0.0,1.0,90,0.00,,---,0.00,0.00,VWS V14.01,2013-01-18 13:02:00,
2013-01-18 05:07:00,33.8,31.2,30.26,NE,50,0.0,2.0,90,0.00,,---,0.00,0.00,VWS V14.01,2013-01-18 13:07:00,
2013-01-18 05:12:00,33.8,31.2,30.26,NE,50,0.0,2.0,90,0.00,,---,0.00,0.00,VWS V14.01,2013-01-18 13:12:00,
2013-01-18 05:17:00,33.8,31.2,30.26,NE,50,0.0,2.0,90,0.00,,---,0.00,0.00,VWS V14.01,2013-01-18 13:17:00,
2013-01-18 05:22:00,33.8,31.2,30.26,NE,50,1.0,2.0,90,0.00,,---,0.00,0.00,VWS V14.01,2013-01-18 13:22:00,
2013-01-18 05:27:00,33.7,31.1,30.27,NE,50,0.0,1.0,90,0.00,,---,0.00,0.00,VWS V14.01,2013-01-18 13:27:00,
2013-01-18 05:30:00,33.7,31.1,30.27,NE,50,0.0,4.0,90,0.00,,---,0.00,0.00,VWS V14.01,2013-01-18 13:30:00,
2013-01-18 05:32:00,33.7,31.1,30.27,NE,50,0.0,2.0,90,0.00,,---,0.00,0.00,VWS V14.01,2013-01-18 13:32:00,
2013-01-18 05:37:00,33.6,31.0,30.27,NE,50,1.0,2.0,90,0.00,,---,0.00,0.00,VWS V14.01,2013-01-18 13:37:00,
2013-01-18 05:42:00,33.6,31.0,30.27,NE,50,2.0,5.0,90,0.00,,---,0.00,0.00,VWS V14.01,2013-01-18 13:42:00,
2013-01-18 05:47:00,33.5,30.9,30.27,NE,50,1.0,5.0,90,0.00,,---,0.00,0.00,VWS V14.01,2013-01-18 13:47:00,
2013-01-18 05:52:00,33.5,30.9,30.27,NE,50,0.0,5.0,90,0.00,,---,0.00,0.00,VWS V14.01,2013-01-18 13:52:00,
2013-01-18 05:57:00,33.5,30.9,30.27,NE,50,0.0,0.0,90,0.00,,---,0.00,0.00,VWS V14.01,2013-01-18 13:57:00,
2013-01-18 06:00:00,33.5,30.9,30.27,NE,50,0.0,5.0,90,0.00,,---,0.00,0.00,VWS V14.01,2013-01-18 14:00:00,
2013-01-18 06:02:00,33.5,30.9,30.27,NE,50,0.0,3.0,90,0.00,,---,0.00,0.00,VWS V14.01,2013-01-18 14:02:00,
2013-01-18 06:07:00,33.6,31.0,30.27,NE,50,0.0,4.0,90,0.00,,---,0.00,0.00,VWS V14.01,2013-01-18 14:07:00,
2013-01-18 06:12:00,33.6,31.0,30.27,NE,50,0.0,4.0,90,0.00,,---,0.00,0.00,VWS V14.01,2013-01-18 14:12:00,
2013-01-18 06:17:00,33.6,31.0,30.27,NE,50,1.0,4.0,90,0.00,,---,0.00,0.00,VWS V14.01,2013-01-18 14:17:00,
2013-01-18 06:22:00,33.6,31.0,30.27,NE,50,0.0,4.0,90,0.00,,---,0.00,0.00,VWS V14.01,2013-01-18 14:22:00,
2013-01-18 06:27:00,33.6,31.0,30.27,NE,50,1.0,1.0,90,0.00,,---,0.00,0.00,VWS V14.01,2013-01-18 14:27:00,
2013-01-18 06:30:00,33.6,31.0,30.27,NE,50,0.0,5.0,90,0.00,,---,0.00,0.00,VWS V14.01,2013-01-18 14:30:00,
2013-01-18 06:32:00,33.6,31.0,30.27,NE,50,0.0,2.0,90,0.00,,---,0.00,0.00,VWS V14.01,2013-01-18 14:32:00,
2013-01-18 06:37:00,33.5,30.9,30.27,NE,50,0.0,2.0,90,0.00,,---,0.00,0.00,VWS V14.01,2013-01-18 14:37:00,
2013-01-18 06:42:00,33.5,30.9,30.27,NE,50,0.0,2.0,90,0.00,,---,0.00,0.00,VWS V14.01,2013-01-18 14:42:00,
2013-01-18 06:47:00,33.5,30.9,30.27,NE,50,0.0,2.0,90,0.00,,---,0.00,0.00,VWS V14.01,2013-01-18 14:47:00,
2013-01-18 06:52:00,33.5,30.9,30.27,NE,50,0.0,2.0,90,0.00,,---,0.00,0.00,VWS V14.01,2013-01-18 14:52:00,
2013-01-18 06:57:00,33.5,30.9,30.27,NE,50,0.0,0.0,90,0.00,,---,0.00,0.00,VWS V14.01,2013-01-18 14:57:00,
2013-01-18 07:00:00,33.6,31.0,30.27,NE,50,0.0,2.0,90,0.00,,---,0.00,0.00,VWS V14.01,2013-01-18 15:00:00,
2013-01-18 07:02:00,33.6,31.0,30.27,NE,50,0.0,1.0,90,0.00,,---,0.00,0.00,VWS V14.01,2013-01-18 15:02:00,
2013-01-18 07:07:00,33.7,31.1,30.27,NE,50,0.0,1.0,90,0.00,,---,0.00,0.00,VWS V14.01,2013-01-18 15:07:00,
2013-01-18 07:12:00,33.7,31.1,30.27,NE,50,0.0,1.0,90,0.00,,---,0.00,0.00,VWS V14.01,2013-01-18 15:12:00,
2013-01-18 07:17:00,33.7,31.1,30.27,NE,50,0.0,1.0,90,0.00,,---,0.00,0.00,VWS V14.01,2013-01-18 15:17:00,
2013-01-18 07:22:00,33.8,31.2,30.27,NE,50,0.0,1.0,90,0.00,,---,0.00,0.00,VWS V14.01,2013-01-18 15:22:00,
2013-01-18 07:27:00,33.9,31.3,30.27,NE,50,0.0,0.0,90,0.00,,---,0.00,0.00,VWS V14.01,2013-01-18 15:27:00,
2013-01-18 07:30:00,33.8,31.2,30.27,NE,50,0.0,1.0,90,0.00,,---,0.00,0.00,VWS V14.01,2013-01-18 15:30:00,
2013-01-18 07:32:00,33.9,31.3,30.27,NE,50,0.0,0.0,90,0.00,,---,0.00,0.00,VWS V14.01,2013-01-18 15:32:00,
2013-01-18 07:37:00,34.0,31.4,30.27,NE,50,0.0,0.0,90,0.00,,---,0.00,0.00,VWS V14.01,2013-01-18 15:37:00,
2013-01-18 07:42:00,34.1,31.5,30.27,NE,50,0.0,0.0,90,0.00,,---,0.00,0.00,VWS V14.01,2013-01-18 15:42:00,
2013-01-18 07:47:00,34.1,31.5,30.27,NE,50,0.0,0.0,90,0.00,,---,0.00,0.00,VWS V14.01,2013-01-18 15:47:00,
2013-01-18 07:52:00,34.2,31.6,30.27,NE,50,0.0,1.0,90,0.00,,---,0.00,0.00,VWS V14.01,2013-01-18 15:52:00,
2013-01-18 07:57:00,34.2,31.6,30.28,NE,50,0.0,0.0,90,0.00,,---,0.00,0.00,VWS V14.01,2013-01-18 15:57:00,
2013-01-18 08:00:00,34.2,31.6,30.27,NE,50,0.0,1.0,90,0.00,,---,0.00,0.00,VWS V14.01,2013-01-18 16:00:00,
2013-01-18 08:02:00,34.3,31.7,30.28,NE,50,0.0,1.0,90,0.00,,---,0.00,0.00,VWS V14.01,2013-01-18 16:02:00,
2013-01-18 08:07:00,34.3,31.7,30.28,NE,50,0.0,1.0,90,0.00,,---,0.00,0.00,VWS V14.01,2013-01-18 16:07:00,
2013-01-18 08:12:00,34.3,31.7,30.28,NE,50,0.0,1.0,90,0.00,,---,0.00,0.00,VWS V14.01,2013-01-18 16:12:00,
2013-01-18 08:17:00,34.3,31.7,30.28,NE,50,0.0,1.0,90,0.00,,---,0.00,5.00,VWS V14.01,2013-01-18 16:17:00,
2013-01-18 08:22:00,34.3,31.7,30.28,NE,50,0.0,1.0,90,0.00,,---,0.00,5.00,VWS V14.01,2013-01-18 16:22:00,
2013-01-18 08:27:00,34.4,31.8,30.29,NE,50,0.0,0.0,90,0.00,,---,0.00,11.00,VWS V14.01,2013-01-18 16:27:00,
2013-01-18 08:30:00,34.3,31.7,30.28,NE,50,0.0,1.0,90,0.00,,---,0.00,11.00,VWS V14.01,2013-01-18 16:30:00,
2013-01-18 08:32:00,34.4,31.8,30.29,NE,50,0.0,0.0,90,0.00,,---,0.00,12.00,VWS V14.01,2013-01-18 16:32:00,
2013-01-18 08:37:00,34.4,31.8,30.29,NE,50,0.0,1.0,90,0.00,,---,0.00,11.00,VWS V14.01,2013-01-18 16:37:00,
2013-01-18 08:42:00,34.4,31.8,30.29,NE,50,0.0,3.0,90,0.00,,---,0.00,14.00,VWS V14.01,2013-01-18 16:42:00,
2013-01-18 08:47:00,34.7,32.1,30.29,NE,50,0.0,3.0,90,0.00,,---,0.00,16.00,VWS V14.01,2013-01-18 16:47:00,
2013-01-18 08:52:00,34.7,32.1,30.29,NE,50,0.0,3.0,90,0.01,,---,0.01,18.00,VWS V14.01,2013-01-18 16:52:00,
2013-01-18 08:57:00,34.7,32.1,30.29,NE,50,0.0,0.0,90,0.01,,---,0.01,18.00,VWS V14.01,2013-01-18 16:57:00,
2013-01-18 09:00:00,34.7,32.1,30.29,NE,50,0.0,3.0,90,0.01,,---,0.01,18.00,VWS V14.01,2013-01-18 17:00:00,
2013-01-18 09:02:00,34.6,32.0,30.29,NE,50,0.0,1.0,90,0.01,,---,0.01,19.00,VWS V14.01,2013-01-18 17:02:00,
2013-01-18 09:07:00,34.5,31.9,30.30,NE,50,0.0,1.0,90,0.01,,---,0.01,23.00,VWS V14.01,2013-01-18 17:07:00,
2013-01-18 09:12:00,34.5,31.9,30.30,NE,50,0.0,1.0,90,0.01,,---,0.01,23.00,VWS V14.01,2013-01-18 17:12:00,
2013-01-18 09:17:00,35.0,32.4,30.30,NE,50,0.0,4.0,90,0.01,,---,0.01,25.00,VWS V14.01,2013-01-18 17:17:00,
2013-01-18 09:22:00,35.3,32.7,30.31,NE,50,0.0,4.0,90,0.01,,---,0.01,25.00,VWS V14.01,2013-01-18 17:22:00,
2013-01-18 09:27:00,35.1,32.7,30.30,NE,50,0.0,0.0,91,0.01,,---,0.01,30.00,VWS V14.01,2013-01-18 17:27:00,
2013-01-18 09:30:00,35.1,32.5,30.31,NE,50,0.0,4.0,90,0.01,,---,0.01,30.00,VWS V14.01,2013-01-18 17:30:00,
2013-01-18 09:32:00,34.9,32.5,30.30,NE,50,0.0,0.0,91,0.01,,---,0.01,33.00,VWS V14.01,2013-01-18 17:32:00,
2013-01-18 09:37:00,35.0,32.6,30.31,NE,50,0.0,0.0,91,0.01,,---,0.01,32.00,VWS V14.01,2013-01-18 17:37:00,
2013-01-18 09:42:00,35.1,32.7,30.31,NE,50,0.0,0.0,91,0.01,,---,0.01,30.00,VWS V14.01,2013-01-18 17:42:00,
2013-01-18 09:47:00,35.2,32.8,30.31,NE,50,0.0,0.0,91,0.01,,---,0.01,30.00,VWS V14.01,2013-01-18 17:47:00,
2013-01-18 09:52:00,35.2,32.8,30.31,NE,50,0.0,2.0,91,0.01,,---,0.01,32.00,VWS V14.01,2013-01-18 17:52:00,
2013-01-18 09:57:00,35.2,32.6,30.31,NE,50,0.0,0.0,90,0.00,,---,0.01,35.00,VWS V14.01,2013-01-18 17:57:00,
2013-01-18 10:00:00,35.2,32.6,30.31,NE,50,0.0,4.0,90,0.01,,---,0.01,35.00,VWS V14.01,2013-01-18 18:00:00,
2013-01-18 10:02:00,35.2,32.6,30.31,NE,50,0.0,1.0,90,0.00,,---,0.01,42.00,VWS V14.01,2013-01-18 18:02:00,
2013-01-18 10:07:00,35.4,32.8,30.31,NE,50,0.0,1.0,90,0.00,,---,0.01,46.00,VWS V14.01,2013-01-18 18:07:00,
2013-01-18 10:12:00,35.5,32.9,30.31,NE,50,0.0,1.0,90,0.00,,---,0.01,47.00,VWS V14.01,2013-01-18 18:12:00,
2013-01-18 10:17:00,35.6,33.2,30.31,NE,50,0.0,2.0,91,0.00,,---,0.01,58.00,VWS V14.01,2013-01-18 18:17:00,
2013-01-18 10:22:00,35.7,33.3,30.31,NE,50,0.0,2.0,91,0.00,,---,0.01,65.00,VWS V14.01,2013-01-18 18:22:00,
2013-01-18 10:27:00,35.9,33.5,30.31,NE,50,0.0,0.0,91,0.00,,---,0.01,60.00,VWS V14.01,2013-01-18 18:27:00,
2013-01-18 10:30:00,35.9,33.5,30.31,NE,50,0.0,2.0,91,0.00,,---,0.01,62.00,VWS V14.01,2013-01-18 18:30:00,
2013-01-18 10:32:00,35.9,33.5,30.31,NE,50,0.0,2.0,91,0.00,,---,0.01,51.00,VWS V14.01,2013-01-18 18:32:00,
2013-01-18 10:37:00,35.9,33.5,30.31,NE,50,0.0,2.0,91,0.00,,---,0.01,47.00,VWS V14.01,2013-01-18 18:37:00,
2013-01-18 10:42:00,36.0,33.4,30.31,NE,50,2.0,4.0,90,0.00,,---,0.01,49.00,VWS V14.01,2013-01-18 18:42:00,
2013-01-18 10:47:00,36.0,33.4,30.31,NE,50,0.0,6.0,90,0.00,,---,0.01,44.00,VWS V14.01,2013-01-18 18:47:00,
2013-01-18 10:52:00,36.0,33.4,30.31,NE,50,0.0,6.0,90,0.00,,---,0.01,49.00,VWS V14.01,2013-01-18 18:52:00,
2013-01-18 10:57:00,36.0,33.4,30.31,NE,50,0.0,6.0,90,0.00,,---,0.01,51.00,VWS V14.01,2013-01-18 18:57:00,
2013-01-18 11:00:00,36.0,33.4,30.31,NE,50,0.0,6.0,90,0.00,,---,0.01,54.00,VWS V14.01,2013-01-18 19:00:00,
2013-01-18 11:02:00,36.0,33.4,30.31,NE,50,0.0,0.0,90,0.00,,---,0.01,54.00,VWS V14.01,2013-01-18 19:02:00,
2013-01-18 11:07:00,36.1,33.5,30.31,NE,50,0.0,1.0,90,0.00,,---,0.01,54.00,VWS V14.01,2013-01-18 19:07:00,
2013-01-18 11:12:00,36.1,33.5,30.31,NE,50,0.0,1.0,90,0.00,,---,0.01,56.00,VWS V14.01,2013-01-18 19:12:00,
2013-01-18 11:17:00,36.2,33.6,30.31,NE,50,0.0,4.0,90,0.00,,---,0.01,60.00,VWS V14.01,2013-01-18 19:17:00,
2013-01-18 11:22:00,36.2,33.6,30.31,NE,50,1.0,4.0,90,0.00,,---,0.01,70.00,VWS V14.01,2013-01-18 19:22:00,
2013-01-18 11:27:00,36.2,33.6,30.30,NE,50,0.0,4.0,90,0.00,,---,0.01,83.00,VWS V14.01,2013-01-18 19:27:00,
2013-01-18 11:30:00,36.2,33.6,30.30,NE,50,0.0,4.0,90,0.00,,---,0.01,84.00,VWS V14.01,2013-01-18 19:30:00,
2013-01-18 11:32:00,36.3,33.9,30.30,NE,50,0.0,1.0,91,0.00,,---,0.01,98.00,VWS V14.01,2013-01-18 19:32:00,
2013-01-18 11:37:00,36.4,34.0,30.30,NE,50,0.0,1.0,91,0.00,,---,0.01,65.00,VWS V14.01,2013-01-18 19:37:00,
2013-01-18 11:42:00,36.4,34.0,30.30,NE,50,0.0,1.0,91,0.00,,---,0.01,72.00,VWS V14.01,2013-01-18 19:42:00,
2013-01-18 11:47:00,36.4,34.0,30.30,NE,50,0.0,1.0,91,0.00,,---,0.01,74.00,VWS V14.01,2013-01-18 19:47:00,
2013-01-18 11:52:00,36.4,34.0,30.30,NE,50,0.0,5.0,91,0.00,,---,0.01,76.00,VWS V14.01,2013-01-18 19:52:00,
2013-01-18 11:57:00,36.5,34.1,30.30,NE,50,0.0,5.0,91,0.00,,---,0.01,69.00,VWS V14.01,2013-01-18 19:57:00,
2013-01-18 12:00:00,36.5,34.1,30.30,NE,50,0.0,5.0,91,0.00,,---,0.01,69.00,VWS V14.01,2013-01-18 20:00:00,
2013-01-18 12:02:00,36.5,34.1,30.30,NE,50,0.0,1.0,91,0.00,,---,0.01,62.00,VWS V14.01,2013-01-18 20:02:00,
2013-01-18 12:07:00,36.7,34.0,30.30,NE,50,0.0,1.0,90,0.00,,---,0.01,51.00,VWS V14.01,2013-01-18 20:07:00,
2013-01-18 12:12:00,36.7,34.3,30.30,NE,50,4.0,4.0,91,0.00,,---,0.01,54.00,VWS V14.01,2013-01-18 20:12:00,
2013-01-18 12:17:00,36.8,34.4,30.30,NE,50,4.0,5.0,91,0.00,,---,0.01,49.00,VWS V14.01,2013-01-18 20:17:00,
2013-01-18 12:22:00,36.8,34.4,30.30,NE,50,0.0,5.0,91,0.00,,---,0.01,51.00,VWS V14.01,2013-01-18 20:22:00,
2013-01-18 12:27:00,36.8,34.4,30.30,NE,50,0.0,5.0,91,0.00,,---,0.01,53.00,VWS V14.01,2013-01-18 20:27:00,
2013-01-18 12:30:00,36.8,34.4,30.30,NE,50,0.0,5.0,91,0.00,,---,0.01,53.00,VWS V14.01,2013-01-18 20:30:00,
2013-01-18 12:32:00,36.9,34.5,30.31,NE,50,5.0,7.0,91,0.00,,---,0.01,54.00,VWS V14.01,2013-01-18 20:32:00,
2013-01-18 12:37:00,36.9,34.5,30.31,NE,50,5.0,7.0,91,0.00,,---,0.01,51.00,VWS V14.01,2013-01-18 20:37:00,
2013-01-18 12:42:00,36.8,34.4,30.31,NE,50,0.0,7.0,91,0.00,,---,0.01,54.00,VWS V14.01,2013-01-18 20:42:00,
2013-01-18 12:47:00,36.7,34.0,30.31,NNE,31,0.0,7.0,90,0.00,,---,0.01,60.00,VWS V14.01,2013-01-18 20:47:00,
2013-01-18 12:52:00,36.6,34.0,30.31,NNE,31,2.0,7.0,90,0.00,,---,0.01,53.00,VWS V14.01,2013-01-18 20:52:00,
2013-01-18 12:57:00,36.6,34.0,30.30,NNE,31,5.0,7.0,90,0.00,,---,0.01,54.00,VWS V14.01,2013-01-18 20:57:00,
2013-01-18 13:00:00,36.6,34.0,30.30,NNE,31,5.0,7.0,90,0.00,,---,0.01,54.00,VWS V14.01,2013-01-18 21:00:00,
2013-01-18 13:02:00,36.6,34.0,30.30,NE,37,0.0,7.0,90,0.00,,---,0.01,49.00,VWS V14.01,2013-01-18 21:02:00,
2013-01-18 13:07:00,36.5,33.8,30.30,NNE,31,1.0,7.0,90,0.00,,---,0.01,56.00,VWS V14.01,2013-01-18 21:07:00,
2013-01-18 13:12:00,36.5,33.8,30.30,NNE,31,5.0,7.0,90,0.00,,---,0.01,37.00,VWS V14.01,2013-01-18 21:12:00,
2013-01-18 13:17:00,36.6,34.0,30.30,NNE,33,1.0,7.0,90,0.00,,---,0.01,40.00,VWS V14.01,2013-01-18 21:17:00,
2013-01-18 13:22:00,36.8,34.4,30.30,NNE,33,2.0,7.0,91,0.00,,---,0.01,40.00,VWS V14.01,2013-01-18 21:22:00,
2013-01-18 13:27:00,36.8,34.4,30.30,NE,34,1.0,8.0,91,0.00,,---,0.01,46.00,VWS V14.01,2013-01-18 21:27:00,
2013-01-18 13:30:00,36.8,34.4,30.30,NE,34,2.0,8.0,91,0.00,,---,0.01,46.00,VWS V14.01,2013-01-18 21:30:00,
2013-01-18 13:32:00,36.6,34.0,30.30,NNE,21,2.0,8.0,90,0.00,,---,0.01,42.00,VWS V14.01,2013-01-18 21:32:00,
2013-01-18 13:37:00,36.5,33.8,30.30,NNE,26,3.0,8.0,90,0.00,,---,0.01,42.00,VWS V14.01,2013-01-18 21:37:00,
2013-01-18 13:42:00,36.4,33.8,30.30,NE,35,3.0,8.0,90,0.00,,---,0.01,49.00,VWS V14.01,2013-01-18 21:42:00,
2013-01-18 13:47:00,36.4,34.0,30.30,NE,34,0.0,8.0,91,0.00,,---,0.01,46.00,VWS V14.01,2013-01-18 21:47:00,
2013-01-18 13:52:00,36.3,33.9,30.30,NE,37,7.0,8.0,91,0.00,,---,0.01,42.00,VWS V14.01,2013-01-18 21:52:00,
2013-01-18 13:57:00,36.3,33.9,30.30,NE,37,3.0,8.0,91,0.00,,---,0.01,37.00,VWS V14.01,2013-01-18 21:57:00,
2013-01-18 14:00:00,36.2,33.8,30.30,NE,37,0.0,8.0,91,0.00,,---,0.01,37.00,VWS V14.01,2013-01-18 22:00:00,
2013-01-18 14:02:00,36.2,33.8,30.30,NE,40,6.0,8.0,91,0.00,,---,0.01,32.00,VWS V14.01,2013-01-18 22:02:00,
2013-01-18 14:07:00,36.3,33.9,30.30,ENE,60,5.0,9.0,91,0.00,,---,0.01,33.00,VWS V14.01,2013-01-18 22:07:00,
2013-01-18 14:12:00,36.1,33.7,30.30,ENE,60,2.0,9.0,91,0.00,,---,0.01,51.00,VWS V14.01,2013-01-18 22:12:00,
2013-01-18 14:17:00,36.0,33.4,30.30,ENE,63,0.0,9.0,90,0.00,,---,0.01,53.00,VWS V14.01,2013-01-18 22:17:00,
2013-01-18 14:22:00,35.8,33.2,30.30,ENE,64,1.0,9.0,90,0.00,,---,0.01,69.00,VWS V14.01,2013-01-18 22:22:00,
2013-01-18 14:27:00,35.8,33.2,30.30,ENE,64,0.0,9.0,90,0.00,,---,0.01,69.00,VWS V14.01,2013-01-18 22:27:00,
2013-01-18 14:30:00,35.8,33.2,30.30,ENE,64,2.0,9.0,90,0.00,,---,0.01,69.00,VWS V14.01,2013-01-18 22:30:00,
2013-01-18 14:32:00,35.9,33.3,30.30,ENE,64,0.0,6.0,90,0.00,,---,0.01,54.00,VWS V14.01,2013-01-18 22:32:00,
2013-01-18 14:37:00,35.9,33.3,30.30,ENE,64,0.0,6.0,90,0.00,,---,0.01,49.00,VWS V14.01,2013-01-18 22:37:00,
2013-01-18 14:42:00,35.9,33.3,30.30,ENE,64,4.0,6.0,90,0.00,,---,0.01,28.00,VWS V14.01,2013-01-18 22:42:00,
2013-01-18 14:47:00,36.0,33.4,30.30,ENE,64,0.0,6.0,90,0.00,,---,0.01,18.00,VWS V14.01,2013-01-18 22:47:00,
2013-01-18 14:52:00,36.0,33.4,30.30,ENE,64,1.0,6.0,90,0.00,,---,0.01,39.00,VWS V14.01,2013-01-18 22:52:00,
2013-01-18 14:57:00,36.0,33.4,30.31,ENE,63,4.0,6.0,90,0.00,,---,0.01,26.00,VWS V14.01,2013-01-18 22:57:00,
2013-01-18 15:00:00,36.0,33.4,30.31,ENE,63,5.0,6.0,90,0.00,,---,0.01,26.00,VWS V14.01,2013-01-18 23:00:00,
2013-01-18 15:02:00,36.0,33.4,30.31,ENE,63,1.0,5.0,90,0.00,,---,0.01,23.00,VWS V14.01,2013-01-18 23:02:00,
2013-01-18 15:07:00,36.0,33.4,30.30,ENE,63,1.0,5.0,90,0.00,,---,0.01,25.00,VWS V14.01,2013-01-18 23:07:00,
2013-01-18 15:11:00,36.0,33.4,30.30,ENE,63,1.0,6.0,90,0.00,,---,0.01,26.00,VWS V14.01,2013-01-18 23:11:00,
2013-01-18 15:16:00,35.9,33.3,30.31,NE,55,2.0,8.0,90,0.00,,---,0.01,26.00,VWS V14.01,2013-01-18 23:16:00,
2013-01-18 15:21:00,35.6,33.0,30.31,NE,46,5.0,8.0,90,0.00,,---,0.01,19.00,VWS V14.01,2013-01-18 23:21:00,
2013-01-18 15:26:00,35.5,32.9,30.31,NE,45,3.0,8.0,90,0.00,,---,0.01,25.00,VWS V14.01,2013-01-18 23:26:00,
2013-01-18 15:30:00,35.5,32.9,30.31,NE,45,2.0,8.0,90,0.00,,---,0.01,26.00,VWS V14.01,2013-01-18 23:30:00,
2013-01-18 15:31:00,35.5,32.9,30.30,NE,45,4.0,4.0,90,0.00,,---,0.01,28.00,VWS V14.01,2013-01-18 23:31:00,
2013-01-18 15:36:00,35.5,32.9,30.31,NE,42,0.0,6.0,90,0.00,,---,0.01,25.00,VWS V14.01,2013-01-18 23:36:00,
2013-01-18 15:41:00,35.8,33.2,30.30,NE,42,0.0,6.0,90,0.00,,---,0.01,12.00,VWS V14.01,2013-01-18 23:41:00,
2013-01-18 15:46:00,35.8,33.2,30.30,NE,42,1.0,6.0,90,0.00,,---,0.01,26.00,VWS V14.01,2013-01-18 23:46:00,
2013-01-18 15:51:00,35.6,33.0,30.31,NE,42,2.0,6.0,90,0.00,,---,0.01,11.00,VWS V14.01,2013-01-18 23:51:00,
2013-01-18 15:56:00,35.5,32.9,30.31,NE,42,4.0,6.0,90,0.00,,---,0.01,14.00,VWS V14.01,2013-01-18 23:56:00,
2013-01-18 16:00:00,35.5,32.9,30.31,NE,40,6.0,6.0,90,0.00,,---,0.01,16.00,VWS V14.01,2013-01-19 00:00:00,
2013-01-18 16:01:00,35.2,32.6,30.31,North,359,2.0,9.0,90,0.00,,---,0.01,11.00,VWS V14.01,2013-01-19 00:01:00,
2013-01-18 16:06:00,35.1,32.5,30.31,North,359,2.0,9.0,90,0.00,,---,0.01,5.00,VWS V14.01,2013-01-19 00:06:00,
2013-01-18 16:11:00,35.0,32.4,30.31,North,1,3.0,9.0,90,0.00,,---,0.01,5.00,VWS V14.01,2013-01-19 00:11:00,
2013-01-18 16:16:00,34.8,32.2,30.31,North,2,2.0,9.0,90,0.00,,---,0.01,0.00,VWS V14.01,2013-01-19 00:16:00,
2013-01-18 16:21:00,34.7,32.1,30.31,NNE,12,1.0,9.0,90,0.00,,---,0.01,7.00,VWS V14.01,2013-01-19 00:21:00,
2013-01-18 16:26:00,34.7,32.1,30.31,NNE,24,0.0,9.0,90,0.00,,---,0.01,0.00,VWS V14.01,2013-01-19 00:26:00,
2013-01-18 16:30:00,34.7,32.1,30.31,NNE,24,1.0,9.0,90,0.00,,---,0.01,0.00,VWS V14.01,2013-01-19 00:30:00,
2013-01-18 16:31:00,34.5,31.9,30.31,NNE,24,2.0,5.0,90,0.00,,---,0.01,5.00,VWS V14.01,2013-01-19 00:31:00,
2013-01-18 16:36:00,34.5,31.9,30.31,NNE,24,0.0,5.0,90,0.00,,---,0.01,0.00,VWS V14.01,2013-01-19 00:36:00,
2013-01-18 16:41:00,34.4,31.8,30.31,NNE,27,0.0,6.0,90,0.00,,---,0.01,0.00,VWS V14.01,2013-01-19 00:41:00,
2013-01-18 16:46:00,34.4,31.8,30.31,NNE,31,0.0,7.0,90,0.00,,---,0.01,0.00,VWS V14.01,2013-01-19 00:46:00,
2013-01-18 16:51:00,34.4,31.8,30.31,NNE,31,3.0,7.0,90,0.00,,---,0.01,0.00,VWS V14.01,2013-01-19 00:51:00,
2013-01-18 16:56:00,34.4,31.8,30.31,NNE,32,1.0,7.0,90,0.00,,---,0.01,0.00,VWS V14.01,2013-01-19 00:56:00,
2013-01-18 17:00:00,34.4,31.8,30.31,NNE,32,1.0,7.0,90,0.00,,---,0.01,0.00,VWS V14.01,2013-01-19 01:00:00,
2013-01-18 17:01:00,34.4,31.8,30.31,NNE,32,0.0,6.0,90,0.00,,---,0.01,0.00,VWS V14.01,2013-01-19 01:01:00,
2013-01-18 17:06:00,34.2,31.6,30.31,NE,35,4.0,7.0,90,0.00,,---,0.01,0.00,VWS V14.01,2013-01-19 01:06:00,
2013-01-18 17:11:00,34.1,31.5,30.31,NE,37,2.0,7.0,90,0.00,,---,0.01,0.00,VWS V14.01,2013-01-19 01:11:00,
2013-01-18 17:16:00,34.1,31.5,30.31,NE,37,0.0,7.0,90,0.00,,---,0.01,0.00,VWS V14.01,2013-01-19 01:16:00,
2013-01-18 17:21:00,34.1,31.5,30.31,NE,37,0.0,7.0,90,0.00,,---,0.01,0.00,VWS V14.01,2013-01-19 01:21:00,
2013-01-18 17:26:00,34.1,31.5,30.31,NE,37,0.0,7.0,90,0.00,,---,0.01,0.00,VWS V14.01,2013-01-19 01:26:00,
2013-01-18 17:30:00,34.1,31.5,30.31,NE,37,0.0,7.0,90,0.00,,---,0.01,0.00,VWS V14.01,2013-01-19 01:30:00,
2013-01-18 17:31:00,34.1,31.5,30.31,NE,37,1.0,5.0,90,0.00,,---,0.01,0.00,VWS V14.01,2013-01-19 01:31:00,
2013-01-18 17:36:00,34.1,31.5,30.31,NE,37,0.0,5.0,90,0.00,,---,0.01,0.00,VWS V14.01,2013-01-19 01:36:00,
2013-01-18 17:41:00,34.1,31.5,30.31,NE,37,0.0,5.0,90,0.00,,---,0.01,0.00,VWS V14.01,2013-01-19 01:41:00,
2013-01-18 17:46:00,34.0,31.4,30.31,NE,37,0.0,6.0,90,0.00,,---,0.01,0.00,VWS V14.01,2013-01-19 01:46:00,
2013-01-18 17:51:00,33.9,31.3,30.31,NE,37,0.0,6.0,90,0.00,,---,0.01,0.00,VWS V14.01,2013-01-19 01:51:00,
2013-01-18 17:56:00,33.9,31.3,30.31,NE,37,1.0,6.0,90,0.00,,---,0.01,0.00,VWS V14.01,2013-01-19 01:56:00,
2013-01-18 18:00:00,33.9,31.3,30.31,NE,37,0.0,6.0,90,0.00,,---,0.01,0.00,VWS V14.01,2013-01-19 02:00:00,
2013-01-18 18:01:00,33.8,31.2,30.31,NE,37,5.0,6.0,90,0.00,,---,0.01,0.00,VWS V14.01,2013-01-19 02:01:00,
2013-01-18 18:06:00,33.7,31.1,30.31,NE,37,4.0,6.0,90,0.00,,---,0.01,0.00,VWS V14.01,2013-01-19 02:06:00,
2013-01-18 18:11:00,33.5,30.9,30.31,NE,37,2.0,6.0,90,0.00,,---,0.01,0.00,VWS V14.01,2013-01-19 02:11:00,
2013-01-18 18:16:00,33.4,30.8,30.31,NE,37,0.0,7.0,90,0.00,,---,0.01,0.00,VWS V14.01,2013-01-19 02:16:00,
2013-01-18 18:21:00,33.2,30.6,30.31,NE,37,0.0,7.0,90,0.00,,---,0.01,0.00,VWS V14.01,2013-01-19 02:21:00,
2013-01-18 18:26:00,33.1,30.5,30.31,NE,37,0.0,8.0,90,0.00,,---,0.01,0.00,VWS V14.01,2013-01-19 02:26:00,
2013-01-18 18:30:00,33.1,30.5,30.31,NE,37,2.0,8.0,90,0.00,,---,0.01,0.00,VWS V14.01,2013-01-19 02:30:00,
2013-01-18 18:32:00,33.0,30.4,30.31,NE,37,0.0,3.0,90,0.00,,---,0.01,0.00,VWS V14.01,2013-01-19 02:32:00,
2013-01-18 18:37:00,33.0,30.4,30.31,NE,37,0.0,5.0,90,0.00,,---,0.01,0.00,VWS V14.01,2013-01-19 02:37:00,
2013-01-18 18:41:00,33.0,30.4,30.32,NE,37,0.0,5.0,90,0.00,,---,0.01,0.00,VWS V14.01,2013-01-19 02:41:00,
2013-01-18 18:46:00,32.9,30.3,30.32,NE,37,1.0,5.0,90,0.00,,---,0.01,0.00,VWS V14.01,2013-01-19 02:46:00,
2013-01-18 18:52:00,32.9,30.3,30.32,NE,37,3.0,5.0,90,0.00,,---,0.01,0.00,VWS V14.01,2013-01-19 02:52:00,
2013-01-18 18:57:00,32.9,30.3,30.32,NE,37,3.0,5.0,90,0.00,,---,0.01,0.00,VWS V14.01,2013-01-19 02:57:00,
2013-01-18 19:00:00,32.9,30.3,30.32,NE,37,4.0,5.0,90,0.00,,---,0.01,0.00,VWS V14.01,2013-01-19 03:00:00,
2013-01-18 19:02:00,32.8,30.2,30.32,NE,37,2.0,4.0,90,0.00,,---,0.01,0.00,VWS V14.01,2013-01-19 03:02:00,
2013-01-18 19:07:00,32.7,30.1,30.32,NE,37,2.0,4.0,90,0.00,,---,0.01,0.00,VWS V14.01,2013-01-19 03:07:00,
2013-01-18 19:12:00,32.8,30.2,30.32,NE,37,2.0,4.0,90,0.00,,---,0.01,0.00,VWS V14.01,2013-01-19 03:12:00,
2013-01-18 19:17:00,33.4,30.8,30.32,NE,37,2.0,4.0,90,0.00,,---,0.01,0.00,VWS V14.01,2013-01-19 03:17:00,
2013-01-18 19:22:00,33.2,30.6,30.32,NE,37,0.0,5.0,90,0.00,,---,0.01,0.00,VWS V14.01,2013-01-19 03:22:00,
2013-01-18 19:27:00,32.9,30.3,30.32,NE,37,1.0,5.0,90,0.00,,---,0.01,0.00,VWS V14.01,2013-01-19 03:27:00,
2013-01-18 19:30:00,32.9,30.3,30.32,NE,37,1.0,5.0,90,0.00,,---,0.01,0.00,VWS V14.01,2013-01-19 03:30:00,
2013-01-18 19:32:00,32.8,30.2,30.32,NE,37,0.0,4.0,90,0.00,,---,0.01,0.00,VWS V14.01,2013-01-19 03:32:00,
2013-01-18 19:37:00,32.7,30.1,30.32,NE,37,0.0,4.0,90,0.00,,---,0.01,0.00,VWS V14.01,2013-01-19 03:37:00,
2013-01-18 19:42:00,32.5,29.9,30.32,NE,37,1.0,5.0,90,0.00,,---,0.01,0.00,VWS V14.01,2013-01-19 03:42:00,
2013-01-18 19:47:00,32.5,29.9,30.32,NE,37,5.0,5.0,90,0.00,,---,0.01,0.00,VWS V14.01,2013-01-19 03:47:00,
2013-01-18 19:52:00,32.5,29.9,30.32,NE,37,0.0,5.0,90,0.00,,---,0.01,0.00,VWS V14.01,2013-01-19 03:52:00,
2013-01-18 19:57:00,32.4,29.8,30.32,NE,37,0.0,5.0,90,0.00,,---,0.01,0.00,VWS V14.01,2013-01-19 03:57:00,
2013-01-18 20:00:00,32.4,29.8,30.32,NE,37,0.0,5.0,90,0.00,,---,0.01,0.00,VWS V14.01,2013-01-19 04:00:00,
2013-01-18 20:02:00,32.4,29.8,30.32,NE,37,0.0,5.0,90,0.00,,---,0.01,0.00,VWS V14.01,2013-01-19 04:02:00,
2013-01-18 20:07:00,32.3,29.7,30.32,NE,37,0.0,5.0,90,0.00,,---,0.01,0.00,VWS V14.01,2013-01-19 04:07:00,
2013-01-18 20:12:00,32.3,29.7,30.32,NE,37,0.0,5.0,90,0.00,,---,0.01,0.00,VWS V14.01,2013-01-19 04:12:00,
2013-01-18 20:17:00,32.3,29.7,30.32,NE,37,3.0,5.0,90,0.00,,---,0.01,0.00,VWS V14.01,2013-01-19 04:17:00,
2013-01-18 20:22:00,32.4,29.8,30.32,NE,37,0.0,5.0,90,0.00,,---,0.01,0.00,VWS V14.01,2013-01-19 04:22:00,
2013-01-18 20:27:00,32.8,30.2,30.32,NE,37,0.0,5.0,90,0.00,,---,0.01,0.00,VWS V14.01,2013-01-19 04:27:00,
2013-01-18 20:30:00,32.8,30.2,30.32,NE,37,0.0,5.0,90,0.00,,---,0.01,0.00,VWS V14.01,2013-01-19 04:30:00,
2013-01-18 20:32:00,33.1,30.5,30.33,NE,37,0.0,4.0,90,0.00,,---,0.01,0.00,VWS V14.01,2013-01-19 04:32:00,
2013-01-18 20:37:00,33.4,30.8,30.33,NE,37,0.0,4.0,90,0.00,,---,0.01,0.00,VWS V14.01,2013-01-19 04:37:00,
2013-01-18 20:42:00,33.3,30.7,30.33,NE,37,2.0,4.0,90,0.00,,---,0.01,0.00,VWS V14.01,2013-01-19 04:42:00,
2013-01-18 20:47:00,33.0,30.4,30.33,NE,37,0.0,4.0,90,0.00,,---,0.01,0.00,VWS V14.01,2013-01-19 04:47:00,
2013-01-18 20:52:00,32.8,30.2,30.33,NE,37,2.0,4.0,90,0.00,,---,0.01,0.00,VWS V14.01,2013-01-19 04:52:00,
2013-01-18 20:57:00,32.6,30.0,30.33,NE,37,0.0,4.0,90,0.00,,---,0.01,0.00,VWS V14.01,2013-01-19 04:57:00,
2013-01-18 21:00:00,32.5,29.9,30.33,NE,37,0.0,0.0,90,0.00,,---,0.01,0.00,VWS V14.01,2013-01-19 05:00:00,
2013-01-18 21:02:00,32.5,29.9,30.34,NE,37,0.0,1.0,90,0.00,,---,0.01,0.00,VWS V14.01,2013-01-19 05:02:00,
2013-01-18 21:07:00,32.4,29.8,30.33,NE,37,0.0,4.0,90,0.00,,---,0.01,0.00,VWS V14.01,2013-01-19 05:07:00,
2013-01-18 21:12:00,32.4,29.8,30.34,NE,37,0.0,5.0,90,0.00,,---,0.01,0.00,VWS V14.01,2013-01-19 05:12:00,
2013-01-18 21:17:00,32.4,29.8,30.34,NE,37,2.0,5.0,90,0.00,,---,0.01,0.00,VWS V14.01,2013-01-19 05:17:00,
2013-01-18 21:22:00,32.3,29.7,30.34,NE,37,3.0,5.0,90,0.00,,---,0.01,0.00,VWS V14.01,2013-01-19 05:22:00,
2013-01-18 21:27:00,32.2,29.6,30.34,NE,37,0.0,5.0,90,0.00,,---,0.01,0.00,VWS V14.01,2013-01-19 05:27:00,
2013-01-18 21:30:00,32.2,29.6,30.34,NE,37,0.0,5.0,90,0.00,,---,0.01,0.00,VWS V14.01,2013-01-19 05:30:00,
2013-01-18 21:32:00,32.2,29.6,30.34,NE,37,4.0,4.0,90,0.00,,---,0.01,0.00,VWS V14.01,2013-01-19 05:32:00,
2013-01-18 21:37:00,32.1,29.5,30.34,NE,37,4.0,5.0,90,0.00,,---,0.01,0.00,VWS V14.01,2013-01-19 05:37:00,
2013-01-18 21:42:00,32.0,29.4,30.34,NE,37,0.0,5.0,90,0.00,,---,0.01,0.00,VWS V14.01,2013-01-19 05:42:00,
2013-01-18 21:47:00,31.9,29.3,30.34,NE,37,2.0,5.0,90,0.00,,---,0.01,0.00,VWS V14.01,2013-01-19 05:47:00,
2013-01-18 21:52:00,31.9,29.3,30.34,NE,37,0.0,6.0,90,0.00,,---,0.01,0.00,VWS V14.01,2013-01-19 05:52:00,
2013-01-18 21:57:00,31.8,29.2,30.34,NE,37,1.0,6.0,90,0.00,,---,0.01,0.00,VWS V14.01,2013-01-19 05:57:00,
2013-01-18 22:00:00,31.8,29.2,30.34,NE,37,1.0,6.0,90,0.00,,---,0.01,0.00,VWS V14.01,2013-01-19 06:00:00,
2013-01-18 22:02:00,31.7,29.1,30.34,NE,37,0.0,6.0,90,0.00,,---,0.01,0.00,VWS V14.01,2013-01-19 06:02:00,
2013-01-18 22:07:00,31.7,29.1,30.34,NE,37,5.0,6.0,90,0.00,,---,0.01,0.00,VWS V14.01,2013-01-19 06:07:00,
2013-01-18 22:12:00,31.6,29.0,30.34,NE,37,1.0,6.0,90,0.00,,---,0.01,0.00,VWS V14.01,2013-01-19 06:12:00,
2013-01-18 22:17:00,31.7,29.1,30.34,NE,37,0.0,6.0,90,0.00,,---,0.01,0.00,VWS V14.01,2013-01-19 06:17:00,
2013-01-18 22:22:00,31.7,29.1,30.35,NE,37,2.0,6.0,90,0.00,,---,0.01,0.00,VWS V14.01,2013-01-19 06:22:00,
2013-01-18 22:27:00,31.7,29.1,30.35,NE,37,0.0,0.0,90,0.00,,---,0.01,0.00,VWS V14.01,2013-01-19 06:27:00,
2013-01-18 22:30:00,31.7,29.1,30.35,NE,37,0.0,6.0,90,0.00,,---,0.01,0.00,VWS V14.01,2013-01-19 06:30:00,
2013-01-18 22:32:00,31.7,29.1,30.35,NE,37,2.0,5.0,90,0.00,,---,0.01,0.00,VWS V14.01,2013-01-19 06:32:00,
2013-01-18 22:37:00,31.8,29.2,30.35,NE,37,2.0,6.0,90,0.00,,---,0.01,0.00,VWS V14.01,2013-01-19 06:37:00,
2013-01-18 22:42:00,31.9,29.3,30.34,NE,37,1.0,6.0,90,0.00,,---,0.01,0.00,VWS V14.01,2013-01-19 06:42:00,
2013-01-18 22:47:00,31.9,29.3,30.34,NE,37,2.0,6.0,90,0.00,,---,0.01,0.00,VWS V14.01,2013-01-19 06:47:00,
2013-01-18 22:52:00,32.0,29.4,30.34,NE,37,1.0,6.0,90,0.00,,---,0.01,0.00,VWS V14.01,2013-01-19 06:52:00,
2013-01-18 22:57:00,32.0,29.4,30.34,NE,37,1.0,1.0,90,0.00,,---,0.01,0.00,VWS V14.01,2013-01-19 06:57:00,
2013-01-18 23:00:00,32.0,29.4,30.34,NE,37,0.0,6.0,90,0.00,,---,0.01,0.00,VWS V14.01,2013-01-19 07:00:00,
2013-01-18 23:02:00,32.1,29.5,30.34,NE,37,0.0,4.0,90,0.00,,---,0.01,0.00,VWS V14.01,2013-01-19 07:02:00,
2013-01-18 23:07:00,32.1,29.5,30.34,NE,37,0.0,4.0,90,0.00,,---,0.01,0.00,VWS V14.01,2013-01-19 07:07:00,
2013-01-18 23:12:00,32.1,29.5,30.34,NE,37,0.0,6.0,90,0.00,,---,0.01,0.00,VWS V14.01,2013-01-19 07:12:00,
2013-01-18 23:17:00,32.2,29.6,30.35,NE,37,4.0,6.0,90,0.00,,---,0.01,0.00,VWS V14.01,2013-01-19 07:17:00,
2013-01-18 23:22:00,32.1,29.5,30.34,NE,37,2.0,6.0,90,0.00,,---,0.01,0.00,VWS V14.01,2013-01-19 07:22:00,
2013-01-18 23:27:00,32.1,29.5,30.35,NE,37,0.0,2.0,90,0.00,,---,0.01,0.00,VWS V14.01,2013-01-19 07:27:00,
2013-01-18 23:30:00,32.1,29.5,30.35,NE,37,2.0,6.0,90,0.00,,---,0.01,0.00,VWS V14.01,2013-01-19 07:30:00,
2013-01-18 23:32:00,32.5,29.9,30.34,NE,37,2.0,5.0,90,0.00,,---,0.01,0.00,VWS V14.01,2013-01-19 07:32:00,
2013-01-18 23:37:00,32.7,30.1,30.35,NE,37,0.0,5.0,90,0.00,,---,0.01,0.00,VWS V14.01,2013-01-19 07:37:00,
2013-01-18 23:42:00,32.8,30.2,30.35,NE,37,1.0,5.0,90,0.00,,---,0.01,0.00,VWS V14.01,2013-01-19 07:42:00,
2013-01-18 23:47:00,32.6,30.0,30.35,NE,37,3.0,5.0,90,0.00,,---,0.01,0.00,VWS V14.01,2013-01-19 07:47:00,
2013-01-18 23:52:00,32.4,29.8,30.35,NE,37,0.0,5.0,90,0.00,,---,0.01,0.00,VWS V14.01,2013-01-19 07:52:00,
2013-01-18 23:57:00,32.3,29.7,30.35,NE,37,3.0,3.0,90,0.00,,---,0.00,0.00,VWS V14.01,2013-01-19 07:57:00,